createdAt,value
2019-05-15T00:01:59.018Z,39.33
2019-05-15T00:04:38.236Z,33.15
2019-05-15T00:10:48.453Z,32.88
2019-05-15T00:13:43.499Z,32.23
2019-05-15T00:16:22.648Z,32.88
2019-05-15T00:18:58.894Z,27.77
2019-05-15T00:21:31.988Z,28.80
2019-05-15T00:24:13.224Z,29.50
2019-05-15T00:26:48.072Z,29.90
2019-05-15T00:29:19.951Z,28.32
2019-05-15T00:31:51.970Z,34.08
2019-05-15T00:34:28.459Z,33.85
2019-05-15T00:37:05.111Z,34.30
2019-05-15T00:39:42.267Z,26.45
2019-05-15T00:42:13.951Z,26.80
2019-05-15T00:44:45.084Z,36.77
2019-05-15T00:47:18.091Z,35.58
2019-05-15T00:49:49.624Z,30.68
2019-05-15T00:52:28.447Z,29.40
2019-05-15T00:55:08.663Z,27.73
2019-05-15T01:01:19.337Z,45.78
2019-05-15T01:04:03.714Z,34.73
2019-05-15T01:06:39.911Z,28.55
2019-05-15T01:09:18.705Z,32.67
2019-05-15T01:11:49.708Z,36.65
2019-05-15T01:14:20.577Z,26.30
2019-05-15T01:16:51.347Z,32.60
2019-05-15T01:19:22.492Z,26.10
2019-05-15T01:21:53.805Z,27.57
2019-05-15T01:24:24.612Z,32.90
2019-05-15T01:26:55.723Z,28.93
2019-05-15T01:29:38.387Z,29.93
2019-05-15T01:32:19.100Z,33.87
2019-05-15T01:34:50.246Z,25.97
2019-05-15T01:37:21.183Z,34.77
2019-05-15T01:39:51.857Z,32.73
2019-05-15T01:42:27.873Z,34.63
2019-05-15T01:44:58.945Z,39.70
2019-05-15T01:47:30.135Z,40.97
2019-05-15T01:50:02.701Z,41.10
2019-05-15T01:52:34.497Z,34.27
2019-05-15T01:55:05.744Z,31.03
2019-05-15T01:57:38.438Z,30.33
2019-05-15T02:00:10.045Z,40.63
2019-05-15T02:02:40.657Z,37.10
2019-05-15T02:05:11.388Z,37.10
2019-05-15T02:07:41.983Z,37.47
2019-05-15T02:10:13.253Z,38.10
2019-05-15T02:12:43.772Z,38.07
2019-05-15T02:15:14.448Z,32.67
2019-05-15T02:17:44.990Z,35.63
2019-05-15T02:20:15.589Z,41.27
2019-05-15T02:22:48.373Z,42.27
2019-05-15T02:25:19.145Z,32.63
2019-05-15T02:27:49.645Z,42.53
2019-05-15T02:30:28.490Z,32.63
2019-05-15T02:32:52.667Z,39.95
2019-05-15T02:35:23.171Z,44.33
2019-05-15T02:37:53.647Z,51.50
2019-05-15T02:40:24.388Z,69.20
2019-05-15T02:42:55.367Z,55.03
2019-05-15T02:45:26.036Z,39.48
2019-05-15T02:47:59.482Z,51.15
2019-05-15T02:50:29.378Z,46.53
2019-05-15T02:53:01.079Z,43.25
2019-05-15T02:55:31.543Z,39.85
2019-05-15T02:58:02.086Z,52.73
2019-05-15T03:00:44.000Z,41.28
2019-05-15T03:03:05.570Z,44.55
2019-05-15T03:05:36.008Z,54.67
2019-05-15T03:08:09.300Z,47.83
2019-05-15T03:10:40.666Z,54.27
2019-05-15T03:13:10.959Z,58.80
2019-05-15T03:15:41.391Z,63.20
2019-05-15T03:18:11.900Z,59.50
2019-05-15T03:20:42.356Z,49.05
2019-05-15T03:23:12.979Z,47.30
2019-05-15T03:25:49.514Z,52.10
2019-05-15T03:28:20.041Z,54.18
2019-05-15T03:31:15.476Z,57.85
2019-05-15T03:33:28.002Z,60.45
2019-05-15T03:36:01.703Z,55.48
2019-05-15T03:38:29.953Z,65.57
2019-05-15T03:41:00.956Z,59.23
2019-05-15T03:43:31.841Z,59.65
2019-05-15T03:46:02.380Z,61.48
2019-05-15T03:48:33.001Z,66.28
2019-05-15T03:51:04.246Z,65.15
2019-05-15T03:53:39.922Z,69.55
2019-05-15T03:56:10.163Z,65.57
2019-05-15T03:58:40.761Z,59.13
2019-05-15T04:01:28.230Z,60.60
2019-05-15T04:03:43.647Z,79.50
2019-05-15T04:06:14.103Z,74.92
2019-05-15T04:08:44.666Z,65.65
2019-05-15T04:11:15.301Z,66.75
2019-05-15T04:13:45.971Z,59.83
2019-05-15T04:16:19.129Z,70.22
2019-05-15T04:18:49.294Z,59.80
2019-05-15T04:21:20.339Z,59.10
2019-05-15T04:23:53.015Z,52.65
2019-05-15T04:26:25.177Z,58.55
2019-05-15T04:29:00.154Z,57.45
2019-05-15T04:31:41.165Z,49.30
2019-05-15T04:34:02.094Z,53.45
2019-05-15T04:36:32.867Z,49.67
2019-05-15T04:39:05.915Z,47.33
2019-05-15T04:41:39.341Z,52.45
2019-05-15T04:44:10.350Z,46.33
2019-05-15T04:46:40.972Z,39.78
2019-05-15T04:49:11.915Z,39.83
2019-05-15T04:51:42.554Z,45.33
2019-05-15T04:54:14.015Z,42.20
2019-05-15T04:56:44.622Z,40.90
2019-05-15T04:59:18.808Z,38.02
2019-05-15T05:01:51.299Z,35.45
2019-05-15T05:04:20.937Z,32.73
2019-05-15T05:06:54.476Z,28.27
2019-05-15T05:09:25.303Z,35.35
2019-05-15T05:11:58.279Z,31.50
2019-05-15T05:14:29.133Z,27.58
2019-05-15T05:17:00.347Z,33.30
2019-05-15T05:19:33.071Z,33.30
2019-05-15T05:22:07.771Z,27.42
2019-05-15T05:24:38.733Z,41.05
2019-05-15T05:27:09.655Z,37.40
2019-05-15T05:29:40.604Z,34.60
2019-05-15T05:32:11.562Z,32.83
2019-05-15T05:34:43.300Z,35.40
2019-05-15T05:37:14.650Z,30.12
2019-05-15T05:39:45.682Z,28.07
2019-05-15T05:42:35.473Z,28.40
2019-05-15T05:45:09.997Z,38.88
2019-05-15T05:47:42.473Z,35.83
2019-05-15T05:50:18.939Z,36.50
2019-05-15T05:52:50.289Z,33.78
2019-05-15T05:55:22.867Z,29.72
2019-05-15T05:57:59.729Z,42.03
2019-05-15T06:00:42.833Z,37.30
2019-05-15T06:03:28.860Z,34.92
2019-05-15T06:06:02.940Z,39.08
2019-05-15T06:08:48.594Z,37.75
2019-05-15T06:18:19.367Z,15.45
2019-05-15T06:20:49.393Z,18.77
2019-05-15T06:23:24.251Z,24.65
2019-05-15T06:26:01.171Z,20.43
2019-05-15T06:28:33.954Z,21.30
2019-05-15T06:31:16.155Z,18.17
2019-05-15T06:33:51.189Z,20.82
2019-05-15T06:36:25.410Z,16.48
2019-05-15T06:39:08.328Z,16.02
2019-05-15T06:41:39.364Z,14.85
2019-05-15T06:44:23.102Z,13.43
2019-05-15T06:46:55.671Z,17.80
2019-05-15T06:49:30.372Z,14.05
2019-05-15T07:04:31.703Z,21.82
2019-05-15T07:07:11.139Z,22.50
2019-05-15T07:10:08.704Z,27.27
2019-05-15T07:13:12.044Z,34.15
2019-05-15T07:15:58.458Z,26.57
2019-05-15T07:21:57.951Z,33.75
2019-05-15T07:24:34.952Z,27.20
2019-05-15T07:27:15.622Z,28.30
2019-05-15T07:30:07.740Z,23.45
2019-05-15T07:33:10.113Z,19.67
2019-05-15T07:39:28.775Z,20.05
2019-05-15T07:42:11.627Z,27.98
2019-05-15T07:44:59.565Z,22.73
2019-05-15T07:47:40.746Z,19.23
2019-05-15T07:50:27.049Z,19.50
2019-05-15T07:53:02.592Z,26.70
2019-05-15T07:55:39.565Z,25.37
2019-05-15T07:58:40.893Z,25.72
2019-05-15T08:01:24.468Z,27.73
2019-05-15T08:04:14.320Z,26.95
2019-05-15T08:06:38.981Z,25.77
2019-05-15T08:09:13.048Z,24.85
2019-05-15T08:11:53.538Z,24.02
2019-05-15T08:18:07.620Z,21.33
2019-05-15T08:21:42.007Z,18.90
2019-05-15T08:36:38.683Z,28.10
2019-05-15T08:46:38.710Z,22.52
2019-05-15T08:49:53.112Z,18.82
2019-05-15T08:56:35.387Z,16.40
2019-05-15T08:59:58.186Z,16.20
2019-05-15T09:16:24.584Z,16.37
2019-05-15T09:19:31.193Z,15.48
2019-05-15T09:22:33.297Z,14.70
2019-05-15T09:28:49.153Z,21.80
2019-05-15T09:31:39.134Z,29.00
2019-05-15T09:34:46.408Z,24.55
2019-05-15T09:37:52.671Z,22.05
2019-05-15T09:40:08.869Z,22.93
2019-05-15T09:42:40.219Z,23.10
2019-05-15T09:45:58.202Z,20.23
2019-05-15T09:53:30.049Z,20.50
2019-05-15T10:03:03.189Z,21.30
2019-05-15T10:06:31.371Z,21.52
2019-05-15T10:12:33.892Z,23.50
2019-05-15T10:15:24.057Z,26.55
2019-05-15T10:17:59.521Z,26.82
2019-05-15T10:20:42.731Z,27.27
2019-05-15T10:23:19.078Z,21.62
2019-05-15T10:25:53.516Z,27.22
2019-05-15T10:57:42.330Z,15.90
2019-05-15T11:29:02.051Z,13.60
2019-05-15T11:52:25.252Z,19.87
2019-05-15T11:59:11.306Z,24.75
2019-05-15T12:02:12.635Z,14.05
2019-05-15T12:26:56.164Z,11.70
2019-05-15T12:29:04.924Z,14.87
2019-05-15T12:59:52.851Z,12.33
2019-05-15T13:53:12.783Z,14.23
2019-05-15T15:16:42.117Z,24.85
2019-05-15T15:19:53.354Z,22.80
2019-05-15T15:22:39.576Z,19.40
2019-05-15T15:25:40.195Z,22.30
2019-05-15T15:40:52.303Z,24.10
2019-05-15T15:50:33.056Z,20.00
2019-05-15T15:53:22.959Z,23.45
2019-05-15T16:10:51.893Z,14.33
2019-05-15T16:18:50.561Z,11.95
2019-05-15T16:39:21.616Z,21.93
2019-05-15T16:42:19.076Z,20.77
2019-05-15T16:45:16.537Z,54.88
2019-05-15T17:01:56.176Z,22.67
2019-05-15T17:04:38.889Z,27.93
2019-05-15T17:07:30.514Z,30.82
2019-05-15T17:10:03.505Z,43.55
2019-05-15T17:12:42.328Z,43.20
2019-05-15T17:15:21.252Z,53.78
2019-05-15T17:18:13.082Z,50.55
2019-05-15T17:20:53.339Z,47.45
2019-05-15T17:23:30.524Z,40.98
2019-05-15T17:26:08.726Z,58.38
2019-05-15T17:28:39.880Z,38.65
2019-05-15T17:31:17.952Z,43.63
2019-05-15T17:33:58.235Z,48.75
2019-05-15T17:36:38.228Z,43.83
2019-05-15T17:39:11.706Z,38.25
2019-05-15T17:41:48.266Z,44.50
2019-05-15T17:44:22.170Z,41.60
2019-05-15T17:46:55.283Z,47.53
2019-05-15T17:49:29.773Z,56.33
2019-05-15T17:52:05.253Z,46.68
2019-05-15T17:54:44.367Z,62.85
2019-05-15T17:57:28.623Z,55.20
2019-05-15T17:59:50.685Z,54.08
2019-05-15T18:02:28.440Z,44.20
2019-05-15T18:05:00.400Z,44.40
2019-05-15T18:07:38.852Z,33.90
2019-05-15T18:10:10.884Z,41.13
2019-05-15T18:12:43.360Z,51.05
2019-05-15T18:15:17.063Z,40.43
2019-05-15T18:17:51.064Z,43.98
2019-05-15T18:20:33.063Z,45.33
2019-05-15T18:23:08.463Z,47.33
2019-05-15T18:25:41.301Z,46.42
2019-05-15T18:28:18.729Z,43.87
2019-05-15T18:30:50.345Z,40.43
2019-05-15T18:33:23.404Z,49.93
2019-05-15T18:36:01.859Z,61.37
2019-05-15T18:38:34.841Z,48.08
2019-05-15T18:41:05.684Z,49.30
2019-05-15T18:43:38.315Z,46.20
2019-05-15T18:46:13.077Z,36.30
2019-05-15T18:48:49.751Z,41.15
2019-05-15T18:51:23.209Z,41.28
2019-05-15T18:53:58.650Z,34.55
2019-05-15T18:56:29.877Z,42.08
2019-05-15T18:59:05.495Z,55.40
2019-05-15T19:01:39.371Z,57.85
2019-05-15T19:04:10.708Z,53.83
2019-05-15T19:06:47.981Z,56.25
2019-05-15T19:09:19.017Z,53.45
2019-05-15T19:11:50.322Z,55.98
2019-05-15T19:14:21.565Z,63.45
2019-05-15T19:16:59.953Z,70.62
2019-05-15T19:19:34.915Z,54.63
2019-05-15T19:22:08.630Z,56.92
2019-05-15T19:24:40.262Z,66.92
2019-05-15T19:27:11.296Z,67.30
2019-05-15T19:29:43.531Z,73.72
2019-05-15T19:32:14.935Z,90.77
2019-05-15T19:34:48.570Z,80.42
2019-05-15T19:37:19.651Z,80.15
2019-05-15T19:39:58.464Z,74.95
2019-05-15T19:42:30.740Z,82.62
2019-05-15T19:45:05.356Z,74.70
2019-05-15T19:47:38.417Z,68.50
2019-05-15T19:50:09.389Z,63.92
2019-05-15T19:52:43.499Z,63.40
2019-05-15T19:55:14.892Z,56.33
2019-05-15T19:57:49.211Z,59.90
2019-05-15T20:00:22.148Z,62.53
2019-05-15T20:02:53.400Z,61.10
2019-05-15T20:05:24.895Z,63.92
2019-05-15T20:07:55.936Z,53.33
2019-05-15T20:10:28.981Z,52.53
2019-05-15T20:13:00.348Z,48.68
2019-05-15T20:15:31.065Z,64.05
2019-05-15T20:18:02.526Z,57.67
2019-05-15T20:20:33.736Z,57.50
2019-05-15T20:23:05.157Z,48.92
2019-05-15T20:25:38.250Z,62.67
2019-05-15T20:28:12.212Z,46.35
2019-05-15T20:30:43.210Z,64.95
2019-05-15T20:33:14.440Z,55.70
2019-05-15T20:35:45.247Z,65.78
2019-05-15T20:38:16.732Z,49.25
2019-05-15T20:40:48.570Z,49.60
2019-05-15T20:43:21.323Z,55.38
2019-05-15T20:45:52.801Z,53.02
2019-05-15T20:48:23.459Z,51.42
2019-05-15T20:51:05.647Z,51.20
2019-05-15T20:53:34.525Z,44.33
2019-05-15T20:56:08.816Z,45.40
2019-05-15T20:58:58.301Z,47.98
2019-05-15T21:01:30.004Z,53.48
2019-05-15T21:04:28.052Z,42.08
2019-05-15T21:07:12.010Z,39.33
2019-05-15T21:09:58.804Z,56.50
2019-05-15T21:13:18.764Z,42.03
2019-05-15T21:16:05.009Z,40.92
2019-05-15T21:18:41.550Z,43.08
2019-05-15T21:21:14.464Z,41.53
2019-05-15T21:23:49.429Z,37.55
2019-05-15T21:26:20.360Z,40.40
2019-05-15T21:28:54.761Z,40.55
2019-05-15T21:31:28.975Z,30.88
2019-05-15T21:34:02.063Z,36.83
2019-05-15T21:36:35.053Z,35.90
2019-05-15T21:39:09.574Z,39.42
2019-05-15T21:41:42.319Z,33.02
2019-05-15T21:44:32.854Z,38.05
2019-05-15T21:47:08.168Z,41.60
2019-05-15T21:49:39.712Z,37.33
2019-05-15T21:52:10.596Z,41.20
2019-05-15T21:54:41.798Z,51.90
2019-05-15T21:57:32.305Z,39.95
2019-05-15T21:59:45.803Z,48.90
2019-05-15T22:02:18.208Z,40.95
2019-05-15T22:04:55.773Z,37.80
2019-05-15T22:07:28.613Z,38.85
2019-05-15T22:09:59.753Z,44.08
2019-05-15T22:12:30.998Z,33.95
2019-05-15T22:15:01.885Z,35.90
2019-05-15T22:17:32.467Z,39.50
2019-05-15T22:20:03.431Z,39.48
2019-05-15T22:22:34.411Z,49.15
2019-05-15T22:25:11.240Z,40.10
2019-05-15T22:27:41.565Z,32.17
2019-05-15T22:30:14.054Z,33.88
2019-05-15T22:32:44.678Z,39.67
2019-05-15T22:35:15.272Z,34.45
2019-05-15T22:37:45.707Z,38.15
2019-05-15T22:40:18.308Z,39.25
2019-05-15T22:42:48.938Z,36.60
2019-05-15T22:45:19.541Z,39.85
2019-05-15T22:47:49.991Z,34.75
2019-05-15T22:50:20.440Z,37.58
2019-05-15T22:52:50.872Z,38.65
2019-05-15T22:55:21.397Z,40.67
2019-05-15T22:57:51.866Z,38.38
2019-05-15T23:00:22.445Z,40.23
2019-05-15T23:02:52.872Z,41.95
2019-05-15T23:05:28.154Z,44.88
2019-05-15T23:07:55.606Z,36.42
2019-05-15T23:10:28.918Z,39.58
2019-05-15T23:12:58.356Z,39.98
2019-05-15T23:15:28.891Z,43.45
2019-05-15T23:17:59.335Z,38.93
2019-05-15T23:20:29.807Z,39.27
2019-05-15T23:23:00.252Z,39.03
2019-05-15T23:25:30.746Z,40.25
2019-05-15T23:28:01.192Z,41.90
2019-05-15T23:30:31.659Z,40.95
2019-05-15T23:33:02.110Z,41.70
2019-05-15T23:35:37.541Z,41.50
2019-05-15T23:38:04.800Z,43.40
2019-05-15T23:40:35.409Z,43.52
2019-05-15T23:43:08.678Z,45.73
2019-05-15T23:45:38.967Z,42.67
2019-05-15T23:48:09.629Z,51.88
2019-05-15T23:50:40.117Z,47.75
2019-05-15T23:53:10.558Z,45.30
2019-05-15T23:55:41.038Z,46.53
2019-05-15T23:58:11.478Z,41.20
